createdAt,value
2019-03-10T00:00:29.166Z,99.90
2019-03-10T00:02:57.750Z,99.90
2019-03-10T00:05:26.357Z,99.90
2019-03-10T00:07:55.175Z,99.90
2019-03-10T00:10:23.793Z,99.90
2019-03-10T00:12:52.362Z,99.90
2019-03-10T00:15:20.895Z,99.90
2019-03-10T00:17:49.832Z,99.90
2019-03-10T00:20:18.440Z,99.90
2019-03-10T00:22:47.111Z,99.90
2019-03-10T00:25:15.876Z,99.90
2019-03-10T00:27:44.454Z,99.90
2019-03-10T00:30:17.250Z,99.90
2019-03-10T00:32:45.778Z,99.90
2019-03-10T00:35:14.521Z,99.90
2019-03-10T00:37:43.392Z,99.90
2019-03-10T00:40:26.406Z,99.90
2019-03-10T00:43:29.866Z,99.90
2019-03-10T00:46:34.811Z,99.90
2019-03-10T00:49:09.119Z,99.90
2019-03-10T00:51:57.606Z,99.90
2019-03-10T00:54:26.147Z,99.90
2019-03-10T00:56:54.754Z,99.90
2019-03-10T00:59:23.339Z,99.90
2019-03-10T01:01:52.343Z,99.90
2019-03-10T01:04:20.991Z,99.90
2019-03-10T01:06:49.798Z,99.90
2019-03-10T01:09:18.450Z,99.90
2019-03-10T01:11:47.630Z,99.90
2019-03-10T01:14:16.206Z,99.90
2019-03-10T01:16:45.375Z,99.90
2019-03-10T01:19:14.026Z,99.90
2019-03-10T01:21:43.656Z,99.90
2019-03-10T01:24:12.246Z,99.90
2019-03-10T01:26:40.824Z,99.90
2019-03-10T01:29:09.369Z,99.90
2019-03-10T01:32:03.426Z,99.90
2019-03-10T01:34:44.006Z,99.90
2019-03-10T01:37:12.588Z,99.90
2019-03-10T01:39:41.127Z,99.90
2019-03-10T01:42:09.710Z,99.90
2019-03-10T01:44:38.246Z,99.90
2019-03-10T01:47:06.850Z,99.90
2019-03-10T01:49:35.389Z,99.90
2019-03-10T01:52:03.998Z,99.90
2019-03-10T01:54:32.579Z,99.90
2019-03-10T01:57:01.110Z,99.90
2019-03-10T01:59:29.695Z,99.90
2019-03-10T02:01:58.522Z,99.90
2019-03-10T02:04:27.106Z,99.90
2019-03-10T02:06:55.647Z,99.90
2019-03-10T02:09:24.577Z,99.90
2019-03-10T02:11:53.110Z,99.90
2019-03-10T02:14:21.688Z,99.90
2019-03-10T02:16:50.230Z,99.90
2019-03-10T02:19:18.754Z,99.90
2019-03-10T02:21:47.397Z,99.90
2019-03-10T02:24:23.455Z,99.90
2019-03-10T02:26:46.482Z,99.90
2019-03-10T02:29:15.014Z,99.90
2019-03-10T02:31:43.663Z,99.90
2019-03-10T02:34:12.195Z,99.90
2019-03-10T02:36:40.774Z,99.90
2019-03-10T02:39:09.452Z,99.90
2019-03-10T02:41:38.380Z,99.90
2019-03-10T02:44:07.265Z,99.90
2019-03-10T02:46:35.844Z,99.90
2019-03-10T02:49:04.456Z,99.90
2019-03-10T02:51:33.037Z,99.90
2019-03-10T02:54:01.564Z,99.90
2019-03-10T02:56:30.138Z,99.90
2019-03-10T02:58:58.606Z,99.90
2019-03-10T03:01:27.172Z,99.90
2019-03-10T03:03:56.124Z,99.90
2019-03-10T03:06:24.695Z,99.90
2019-03-10T03:08:53.230Z,99.90
2019-03-10T03:11:21.826Z,99.90
2019-03-10T03:13:50.382Z,99.90
2019-03-10T03:16:18.967Z,99.90
2019-03-10T03:18:47.505Z,99.90
2019-03-10T03:21:16.110Z,99.90
2019-03-10T03:23:44.686Z,99.90
2019-03-10T03:26:13.257Z,99.90
2019-03-10T03:28:41.799Z,99.90
2019-03-10T03:31:10.443Z,99.90
2019-03-10T03:33:38.976Z,99.90
2019-03-10T03:36:16.445Z,99.90
2019-03-10T03:38:48.432Z,99.90
2019-03-10T03:41:20.162Z,99.90
2019-03-10T03:43:49.626Z,99.90
2019-03-10T03:46:18.161Z,99.90
2019-03-10T03:48:46.735Z,99.90
2019-03-10T03:51:15.340Z,99.90
2019-03-10T03:53:43.935Z,99.90
2019-03-10T03:56:12.558Z,99.90
2019-03-10T03:58:41.172Z,99.90
2019-03-10T04:01:11.636Z,99.90
2019-03-10T04:03:40.490Z,99.90
2019-03-10T04:06:09.093Z,99.90
2019-03-10T04:08:40.335Z,99.90
2019-03-10T04:11:08.927Z,99.90
2019-03-10T04:13:37.502Z,99.90
2019-03-10T04:16:05.964Z,99.90
2019-03-10T04:18:34.539Z,99.90
2019-03-10T04:21:03.079Z,99.90
2019-03-10T04:23:31.663Z,99.90
2019-03-10T04:26:00.195Z,99.90
2019-03-10T04:28:28.771Z,99.90
2019-03-10T04:30:57.384Z,99.90
2019-03-10T04:33:25.958Z,99.90
2019-03-10T04:35:54.495Z,99.90
2019-03-10T04:38:22.994Z,99.90
2019-03-10T04:40:51.450Z,99.90
2019-03-10T04:43:20.103Z,99.90
2019-03-10T04:45:48.734Z,99.90
2019-03-10T04:48:17.262Z,99.90
2019-03-10T04:50:45.846Z,99.90
2019-03-10T04:53:14.671Z,99.90
2019-03-10T04:55:51.238Z,99.90
2019-03-10T04:58:21.418Z,99.90
2019-03-10T05:00:51.550Z,99.90
2019-03-10T05:03:20.080Z,99.90
2019-03-10T05:05:48.655Z,99.90
2019-03-10T05:08:17.522Z,99.90
2019-03-10T05:10:46.102Z,99.90
2019-03-10T05:13:14.567Z,99.90
2019-03-10T05:15:43.138Z,99.90
2019-03-10T05:18:11.597Z,99.90
2019-03-10T05:20:40.176Z,99.90
2019-03-10T05:23:31.509Z,99.90
2019-03-10T05:26:00.432Z,99.90
2019-03-10T05:28:31.003Z,99.90
2019-03-10T05:30:59.641Z,99.90
2019-03-10T05:33:28.252Z,99.90
2019-03-10T05:35:56.822Z,99.90
2019-03-10T05:38:25.286Z,99.90
2019-03-10T05:40:53.865Z,99.90
2019-03-10T05:43:22.741Z,99.90
2019-03-10T05:45:51.391Z,99.90
2019-03-10T05:48:20.038Z,99.90
2019-03-10T05:50:48.577Z,99.90
2019-03-10T05:53:17.374Z,99.90
2019-03-10T05:55:45.950Z,99.90
2019-03-10T05:58:14.410Z,99.90
2019-03-10T06:00:43.460Z,99.90
2019-03-10T06:03:12.027Z,99.90
2019-03-10T06:05:40.598Z,99.90
2019-03-10T06:08:09.206Z,99.90
2019-03-10T06:10:38.053Z,99.90
2019-03-10T06:13:06.509Z,99.90
2019-03-10T06:15:35.022Z,99.90
2019-03-10T06:18:12.984Z,99.90
2019-03-10T06:20:33.737Z,99.90
2019-03-10T06:23:02.246Z,99.90
2019-03-10T06:25:30.865Z,99.90
2019-03-10T06:27:59.421Z,99.90
2019-03-10T06:30:27.887Z,99.90
2019-03-10T06:32:56.454Z,99.90
2019-03-10T06:35:25.203Z,99.90
2019-03-10T06:37:53.727Z,99.90
2019-03-10T06:40:31.630Z,99.90
2019-03-10T06:42:52.526Z,99.90
2019-03-10T06:45:21.062Z,99.90
2019-03-10T06:47:49.644Z,99.90
2019-03-10T06:50:18.178Z,99.90
2019-03-10T06:52:47.102Z,99.90
2019-03-10T06:55:15.569Z,99.90
2019-03-10T06:57:44.211Z,99.90
2019-03-10T07:00:14.022Z,99.90
2019-03-10T07:02:42.667Z,99.90
2019-03-10T07:05:12.435Z,99.90
2019-03-10T07:07:41.015Z,99.90
2019-03-10T07:10:16.339Z,99.90
2019-03-10T07:12:44.923Z,99.90
2019-03-10T07:15:14.523Z,99.90
2019-03-10T07:17:43.056Z,99.90
2019-03-10T07:20:19.519Z,99.90
2019-03-10T07:22:48.225Z,99.90
2019-03-10T07:25:16.789Z,99.90
2019-03-10T07:27:46.958Z,99.90
2019-03-10T07:30:33.374Z,99.90
2019-03-10T07:33:03.487Z,99.90
2019-03-10T07:35:33.705Z,99.90
2019-03-10T07:38:03.806Z,99.90
2019-03-10T07:40:52.046Z,99.90
2019-03-10T07:43:25.314Z,99.90
2019-03-10T07:45:55.486Z,99.90
2019-03-10T07:48:25.690Z,99.90
2019-03-10T07:50:58.926Z,99.90
2019-03-10T07:53:29.433Z,99.90
2019-03-10T07:56:02.312Z,99.90
2019-03-10T07:58:32.523Z,99.90
2019-03-10T08:01:05.598Z,99.90
2019-03-10T08:03:54.118Z,99.90
2019-03-10T08:06:24.431Z,99.90
2019-03-10T08:08:54.814Z,99.90
2019-03-10T08:11:41.494Z,99.90
2019-03-10T08:14:14.406Z,99.90
2019-03-10T08:16:59.878Z,99.90
2019-03-10T08:19:41.810Z,99.90
2019-03-10T08:22:24.247Z,99.90
2019-03-10T08:24:57.403Z,99.90
2019-03-10T08:27:30.350Z,99.90
2019-03-10T08:30:06.490Z,99.90
2019-03-10T08:32:55.170Z,99.90
2019-03-10T08:35:25.391Z,99.90
2019-03-10T08:38:10.870Z,99.90
2019-03-10T08:40:41.046Z,99.90
2019-03-10T08:43:23.530Z,99.90
2019-03-10T08:45:56.698Z,99.90
2019-03-10T08:48:33.131Z,99.90
2019-03-10T08:51:03.356Z,99.90
2019-03-10T08:53:51.875Z,99.90
2019-03-10T08:56:28.054Z,99.90
2019-03-10T08:59:01.212Z,99.90
2019-03-10T09:01:40.436Z,99.90
2019-03-10T09:04:16.438Z,99.90
2019-03-10T09:07:03.341Z,99.90
2019-03-10T09:09:51.779Z,99.90
2019-03-10T09:12:34.179Z,99.90
2019-03-10T09:15:04.618Z,99.90
2019-03-10T09:17:40.612Z,99.90
2019-03-10T09:20:19.617Z,99.90
2019-03-10T09:22:58.931Z,99.90
2019-03-10T09:25:45.726Z,99.90
2019-03-10T09:28:15.906Z,99.90
2019-03-10T09:30:49.050Z,99.90
2019-03-10T09:33:28.314Z,99.90
2019-03-10T09:36:01.271Z,99.90
2019-03-10T09:38:43.602Z,99.90
2019-03-10T09:41:19.555Z,99.90
2019-03-10T09:43:52.163Z,99.90
2019-03-10T09:46:28.317Z,99.90
2019-03-10T09:49:01.198Z,99.90
2019-03-10T09:51:43.797Z,99.90
2019-03-10T09:54:32.286Z,99.90
2019-03-10T09:57:14.302Z,99.90
2019-03-10T09:59:53.358Z,99.90
2019-03-10T10:02:42.074Z,99.90
2019-03-10T10:05:12.330Z,99.90
2019-03-10T10:07:54.466Z,99.90
2019-03-10T10:10:30.443Z,99.90
2019-03-10T10:13:06.735Z,99.90
2019-03-10T10:15:36.922Z,99.90
2019-03-10T10:18:16.042Z,99.90
2019-03-10T10:20:55.086Z,99.90
2019-03-10T10:23:30.917Z,99.90
2019-03-10T10:26:01.131Z,99.90
2019-03-10T10:28:31.355Z,99.90
2019-03-10T10:31:07.682Z,99.90
2019-03-10T10:33:44.229Z,99.90
2019-03-10T10:36:17.115Z,99.90
2019-03-10T10:38:49.770Z,99.90
2019-03-10T10:41:36.263Z,99.90
2019-03-10T10:44:06.491Z,99.90
2019-03-10T10:46:42.423Z,99.90
2019-03-10T10:49:27.960Z,99.90
2019-03-10T10:52:09.718Z,99.90
2019-03-10T10:54:56.703Z,99.90
2019-03-10T10:57:32.686Z,99.90
2019-03-10T11:00:05.846Z,99.90
2019-03-10T11:02:44.984Z,99.90
2019-03-10T11:05:31.618Z,99.90
2019-03-10T11:08:18.358Z,99.90
2019-03-10T11:11:04.887Z,99.90
2019-03-10T11:13:51.898Z,99.90
2019-03-10T11:16:22.421Z,99.90
2019-03-10T11:18:55.275Z,99.90
2019-03-10T11:21:28.166Z,99.90
2019-03-10T11:24:01.016Z,99.90
2019-03-10T11:26:33.935Z,99.90
2019-03-10T11:29:13.078Z,99.90
2019-03-10T11:31:45.746Z,99.90
2019-03-10T11:34:18.735Z,99.90
2019-03-10T11:37:01.303Z,99.90
2019-03-10T11:39:31.479Z,99.90
2019-03-10T11:42:01.690Z,99.90
2019-03-10T11:44:31.802Z,99.90
2019-03-10T11:47:04.486Z,99.90
2019-03-10T11:49:43.413Z,99.90
2019-03-10T11:52:16.626Z,99.90
2019-03-10T11:55:01.915Z,99.90
2019-03-10T11:57:32.398Z,99.90
2019-03-10T12:00:02.578Z,99.90
2019-03-10T12:02:44.757Z,99.90
2019-03-10T12:05:24.201Z,99.90
2019-03-10T12:08:00.366Z,99.90
2019-03-10T12:10:29.086Z,99.90
2019-03-10T12:12:57.691Z,99.90
2019-03-10T12:15:26.281Z,99.90
2019-03-10T12:17:54.837Z,99.90
2019-03-10T12:20:23.498Z,99.90
2019-03-10T12:22:52.034Z,99.90
2019-03-10T12:25:20.570Z,99.90
2019-03-10T12:27:49.155Z,99.90
2019-03-10T12:30:17.877Z,99.90
2019-03-10T12:32:46.483Z,99.90
2019-03-10T12:35:15.197Z,99.90
2019-03-10T12:37:43.784Z,99.90
2019-03-10T12:40:13.200Z,99.90
2019-03-10T12:42:42.699Z,99.90
2019-03-10T12:45:11.849Z,99.90
2019-03-10T12:47:40.358Z,99.90
2019-03-10T12:50:13.376Z,99.90
2019-03-10T12:52:42.031Z,99.90
2019-03-10T12:55:10.850Z,99.90
2019-03-10T12:57:39.707Z,99.90
2019-03-10T13:00:15.638Z,99.90
2019-03-10T13:02:44.325Z,99.90
2019-03-10T13:05:13.042Z,99.90
2019-03-10T13:07:42.011Z,99.90
2019-03-10T13:10:12.598Z,99.90
2019-03-10T13:12:40.700Z,99.90
2019-03-10T13:15:12.049Z,99.90
2019-03-10T13:17:40.668Z,99.90
2019-03-10T13:20:11.066Z,99.90
2019-03-10T13:22:39.614Z,99.90
2019-03-10T13:25:10.777Z,99.90
2019-03-10T13:27:39.315Z,99.90
2019-03-10T13:30:11.026Z,99.90
2019-03-10T13:32:39.557Z,99.90
2019-03-10T13:35:08.283Z,99.90
2019-03-10T13:37:36.843Z,99.90
2019-03-10T13:40:08.090Z,99.90
2019-03-10T13:42:36.561Z,99.90
2019-03-10T13:45:08.427Z,99.90
2019-03-10T13:47:37.032Z,99.90
2019-03-10T13:50:09.287Z,99.90
2019-03-10T13:52:37.895Z,99.90
2019-03-10T13:55:08.002Z,99.90
2019-03-10T13:57:36.612Z,99.90
2019-03-10T14:00:18.910Z,99.90
2019-03-10T14:02:47.446Z,99.90
2019-03-10T14:05:16.082Z,99.90
2019-03-10T14:07:44.635Z,99.90
2019-03-10T14:10:13.348Z,99.90
2019-03-10T14:12:42.197Z,99.90
2019-03-10T14:15:16.009Z,99.90
2019-03-10T14:17:44.550Z,99.90
2019-03-10T14:20:15.334Z,99.90
2019-03-10T14:22:43.944Z,99.90
2019-03-10T14:25:14.541Z,99.10
2019-03-10T14:27:43.214Z,98.20
2019-03-10T14:30:14.781Z,99.30
2019-03-10T14:32:43.318Z,98.70
2019-03-10T14:35:11.954Z,99.10
2019-03-10T14:37:40.631Z,99.90
2019-03-10T14:40:19.994Z,99.50
2019-03-10T14:42:48.522Z,99.90
2019-03-10T14:45:18.369Z,99.20
2019-03-10T14:47:47.046Z,99.50
2019-03-10T14:50:17.659Z,98.70
2019-03-10T14:52:46.620Z,97.10
2019-03-10T14:55:17.028Z,97.40
2019-03-10T14:57:45.564Z,94.40
2019-03-10T15:00:25.268Z,97.10
2019-03-10T15:02:53.935Z,97.00
2019-03-10T15:05:22.674Z,99.90
2019-03-10T15:07:51.216Z,97.40
2019-03-10T15:10:20.018Z,96.30
2019-03-10T15:12:48.564Z,91.90
2019-03-10T15:15:22.688Z,92.40
2019-03-10T15:17:51.462Z,92.70
2019-03-10T15:20:21.575Z,90.70
2019-03-10T15:22:50.891Z,91.60
2019-03-10T15:25:20.918Z,90.30
2019-03-10T15:27:49.545Z,90.40
2019-03-10T15:30:19.258Z,90.00
2019-03-10T15:32:47.893Z,84.70
2019-03-10T15:35:16.497Z,84.20
2019-03-10T15:37:45.062Z,85.20
2019-03-10T15:40:19.812Z,83.30
2019-03-10T15:42:48.531Z,83.30
2019-03-10T15:45:18.215Z,84.90
2019-03-10T15:47:46.855Z,84.80
2019-03-10T15:50:23.497Z,86.60
2019-03-10T15:52:52.130Z,87.50
2019-03-10T15:55:20.679Z,90.40
2019-03-10T15:57:50.439Z,90.10
2019-03-10T16:00:22.856Z,90.80
2019-03-10T16:02:51.486Z,90.30
2019-03-10T16:05:20.165Z,91.40
2019-03-10T16:07:48.732Z,90.90
2019-03-10T16:10:17.342Z,89.10
2019-03-10T16:12:45.838Z,89.50
2019-03-10T16:15:19.257Z,91.00
2019-03-10T16:17:47.814Z,90.90
2019-03-10T16:20:16.496Z,90.90
2019-03-10T16:22:45.059Z,89.30
2019-03-10T16:25:15.807Z,87.80
2019-03-10T16:27:44.437Z,87.00
2019-03-10T16:30:24.354Z,85.90
2019-03-10T16:32:53.069Z,85.10
2019-03-10T16:35:22.495Z,83.40
2019-03-10T16:37:51.428Z,88.00
2019-03-10T16:40:20.692Z,89.30
2019-03-10T16:42:49.259Z,90.40
2019-03-10T16:45:20.043Z,86.50
2019-03-10T16:47:48.682Z,88.80
2019-03-10T16:50:21.634Z,88.60
2019-03-10T16:52:50.344Z,87.30
2019-03-10T16:55:19.217Z,88.20
2019-03-10T16:57:47.843Z,88.30
2019-03-10T17:00:19.504Z,89.50
2019-03-10T17:02:48.531Z,90.60
2019-03-10T17:05:18.519Z,91.60
2019-03-10T17:07:47.826Z,92.40
2019-03-10T17:10:26.860Z,99.90
2019-03-10T17:12:55.425Z,99.90
2019-03-10T17:15:25.003Z,99.90
2019-03-10T17:17:53.798Z,99.90
2019-03-10T17:20:22.404Z,99.90
2019-03-10T17:22:50.954Z,99.90
2019-03-10T17:25:19.412Z,99.90
2019-03-10T17:27:47.976Z,99.90
2019-03-10T17:30:23.922Z,99.90
2019-03-10T17:32:52.548Z,99.90
2019-03-10T17:35:21.722Z,99.90
2019-03-10T17:37:50.390Z,99.90
2019-03-10T17:40:20.190Z,99.90
2019-03-10T17:42:48.868Z,99.90
2019-03-10T17:45:22.435Z,99.90
2019-03-10T17:47:51.111Z,99.90
2019-03-10T17:50:19.823Z,99.90
2019-03-10T17:52:49.105Z,99.90
2019-03-10T17:55:19.973Z,99.90
2019-03-10T17:57:48.576Z,99.90
2019-03-10T18:00:19.932Z,99.90
2019-03-10T18:02:48.748Z,99.90
2019-03-10T18:05:17.384Z,99.90
2019-03-10T18:07:45.917Z,99.90
2019-03-10T18:10:16.562Z,99.90
2019-03-10T18:12:45.094Z,99.90
2019-03-10T18:15:15.829Z,99.90
2019-03-10T18:17:44.402Z,99.90
2019-03-10T18:20:15.426Z,99.90
2019-03-10T18:22:44.019Z,99.90
2019-03-10T18:25:13.332Z,99.90
2019-03-10T18:27:41.863Z,99.90
2019-03-10T18:30:13.767Z,99.90
2019-03-10T18:32:43.800Z,99.90
2019-03-10T18:35:12.527Z,99.90
2019-03-10T18:37:41.122Z,99.90
2019-03-10T18:40:21.041Z,99.90
2019-03-10T18:42:50.011Z,99.90
2019-03-10T18:45:19.821Z,99.90
2019-03-10T18:47:48.599Z,99.90
2019-03-10T18:50:21.445Z,99.90
2019-03-10T18:52:49.986Z,99.90
2019-03-10T18:55:20.058Z,99.90
2019-03-10T18:57:48.655Z,99.90
2019-03-10T19:00:25.446Z,99.90
2019-03-10T19:02:54.119Z,99.90
2019-03-10T19:05:22.848Z,99.90
2019-03-10T19:07:51.413Z,99.90
2019-03-10T19:10:20.012Z,99.90
2019-03-10T19:12:48.578Z,99.90
2019-03-10T19:15:18.950Z,99.90
2019-03-10T19:17:47.513Z,99.90
2019-03-10T19:20:16.387Z,99.90
2019-03-10T19:22:45.098Z,99.90
2019-03-10T19:25:17.707Z,99.90
2019-03-10T19:27:46.617Z,99.90
2019-03-10T19:30:20.526Z,99.90
2019-03-10T19:32:49.038Z,99.90
2019-03-10T19:35:17.637Z,99.90
2019-03-10T19:37:46.291Z,99.90
2019-03-10T19:40:19.910Z,99.90
2019-03-10T19:42:48.545Z,99.90
2019-03-10T19:45:18.518Z,99.90
2019-03-10T19:47:47.157Z,99.90
2019-03-10T19:50:20.817Z,99.90
2019-03-10T19:52:49.284Z,99.90
2019-03-10T19:55:18.174Z,99.90
2019-03-10T19:57:46.686Z,99.90
2019-03-10T20:00:17.429Z,99.90
2019-03-10T20:02:46.623Z,99.90
2019-03-10T20:05:15.507Z,99.90
2019-03-10T20:07:44.775Z,99.90
2019-03-10T20:10:20.626Z,99.90
2019-03-10T20:12:49.406Z,99.90
2019-03-10T20:15:19.419Z,99.90
2019-03-10T20:17:47.954Z,99.90
2019-03-10T20:20:30.869Z,99.90
2019-03-10T20:23:01.209Z,99.90
2019-03-10T20:25:29.803Z,99.90
2019-03-10T20:27:58.361Z,99.90
2019-03-10T20:30:27.796Z,99.90
2019-03-10T20:32:56.329Z,99.90
2019-03-10T20:35:24.887Z,99.90
2019-03-10T20:37:53.490Z,99.90
2019-03-10T20:40:45.852Z,99.90
2019-03-10T20:43:14.383Z,99.90
2019-03-10T20:45:42.944Z,99.90
2019-03-10T20:48:11.482Z,99.90
2019-03-10T20:50:40.038Z,99.90
2019-03-10T20:53:08.579Z,99.90
2019-03-10T20:55:37.133Z,99.90
2019-03-10T20:58:05.658Z,99.90
2019-03-10T21:00:34.222Z,99.90
2019-03-10T21:03:02.746Z,99.90
2019-03-10T21:05:31.591Z,99.90
2019-03-10T21:08:00.153Z,99.90
2019-03-10T21:10:28.751Z,99.90
2019-03-10T21:12:57.316Z,99.90
2019-03-10T21:15:26.749Z,99.90
2019-03-10T21:17:55.498Z,99.90
2019-03-10T21:20:26.102Z,99.90
2019-03-10T21:22:55.136Z,99.90
2019-03-10T21:25:28.804Z,99.90
2019-03-10T21:27:57.383Z,99.90
2019-03-10T21:30:28.974Z,99.90
2019-03-10T21:32:57.854Z,99.90
2019-03-10T21:35:26.463Z,99.90
2019-03-10T21:37:55.162Z,99.90
2019-03-10T21:40:29.351Z,99.90
2019-03-10T21:42:57.915Z,99.90
2019-03-10T21:45:26.518Z,99.90
2019-03-10T21:47:55.002Z,99.90
2019-03-10T21:50:23.862Z,99.90
2019-03-10T21:52:52.418Z,99.90
2019-03-10T21:55:20.951Z,99.90
2019-03-10T21:57:49.656Z,99.90
2019-03-10T22:00:21.309Z,99.90
2019-03-10T22:02:49.884Z,99.90
2019-03-10T22:05:18.550Z,99.90
2019-03-10T22:07:47.614Z,99.90
2019-03-10T22:10:27.665Z,99.90
2019-03-10T22:12:51.514Z,99.90
2019-03-10T22:15:20.936Z,99.90
2019-03-10T22:17:49.562Z,99.90
2019-03-10T22:20:18.835Z,99.90
2019-03-10T22:22:49.889Z,99.90
2019-03-10T22:25:17.990Z,99.90
2019-03-10T22:27:46.655Z,99.90
2019-03-10T22:30:19.203Z,99.90
2019-03-10T22:32:47.754Z,99.90
2019-03-10T22:35:16.285Z,99.90
2019-03-10T22:37:45.231Z,99.90
2019-03-10T22:40:15.199Z,99.90
2019-03-10T22:42:43.931Z,99.90
2019-03-10T22:45:17.065Z,99.90
2019-03-10T22:47:45.893Z,99.90
2019-03-10T22:50:15.264Z,99.90
2019-03-10T22:52:44.206Z,99.90
2019-03-10T22:55:13.767Z,99.90
2019-03-10T22:57:42.313Z,99.90
2019-03-10T23:00:16.391Z,99.90
2019-03-10T23:02:45.026Z,99.90
2019-03-10T23:05:13.693Z,99.90
2019-03-10T23:07:42.392Z,99.90
2019-03-10T23:10:13.358Z,99.90
2019-03-10T23:12:41.986Z,99.90
2019-03-10T23:15:12.635Z,99.90
2019-03-10T23:17:41.262Z,99.90
2019-03-10T23:20:14.871Z,99.90
2019-03-10T23:22:43.605Z,99.90
2019-03-10T23:25:12.142Z,99.90
2019-03-10T23:27:40.666Z,99.90
2019-03-10T23:30:12.553Z,99.90
2019-03-10T23:32:41.177Z,99.90
2019-03-10T23:35:09.770Z,99.90
2019-03-10T23:37:38.614Z,99.90
2019-03-10T23:40:12.490Z,99.90
2019-03-10T23:42:41.017Z,99.90
2019-03-10T23:45:11.844Z,99.90
2019-03-10T23:47:40.718Z,99.90
2019-03-10T23:50:11.142Z,99.90
2019-03-10T23:52:39.742Z,99.90
2019-03-10T23:55:10.137Z,99.90
2019-03-10T23:57:38.593Z,99.90
